Tiempo atmosférico en la estación meteorológica de Tinajo, Las Palmas (275 m.)



Fecha
DESCASC
Temp. máxima en grados centígrados (hora)
DESCASC
Temp. mínima en grados centígrados (hora)
DESCASC
Temp. media en grados centígrados
DESCASC
Racha de viento máxima en m/sg (hora)
DESCASC
Velocidad máxima media en intervalos de 10 minutos(hora)
DESCASC
Precipitaciones diarias en mm
DESCASC
Precipitaciones de 00:00 a 06:00 en mm
DESCASC
Precipitaciones de 06:00 a 12:00 en mm
DESCASC
Precipitaciones de 12:00 a 18:00 en mm
DESCASC
Precipitaciones de 18:00 a 24:00 en mm
DESCASC
24-09-2020 29.3 (16:00) 20.5 (06:00) 24.9 8.89 (12:30) 5.56 (12:10) 0 0 0 0 0
23-09-2020 26.6 (13:30) 20 (00:00) 23.3 9.17 (03:30) 6.67 (19:50) 0 0 0 0 0
22-09-2020 27.2 (14:40) 20.1 (00:00) 23.7 8.33 (20:10) 5.83 (20:10) 0 0 0 0 0
21-09-2020 26 (15:00) 20 (00:00) 23 10 (12:40) 5.83 (13:10) 0 0 0 0 0
20-09-2020 24.8 (14:10) 19.4 (00:00) 22.1 13.89 (00:20) 8.33 (00:10) 0 0 0 0 0
19-09-2020 24.5 (14:40) 19.1 (00:00) 21.8 13.61 (16:20) 8.61 (16:20) 0 0 0 0 0
18-09-2020 24 (15:30) 19.4 (00:00) 21.7 8.89 (23:40) 5.28 (23:40) 0 0 0 0 0
17-09-2020 24.1 (13:50) 20.1 (00:00) 22.1 9.44 (18:40) 6.67 (18:40) 0 0 0 0 0
16-09-2020 30.4 (13:40) 20 (00:00) 25.2 13.89 (01:50) 9.72 (01:40) 0 0 0 0 0
15-09-2020 23.7 (14:00) 19.7 (00:00) 21.7 13.06 (12:30) 9.17 (11:50) 0 0 0 0 0
14-09-2020 24.8 (14:30) 18.8 (00:00) 21.8 10.28 (18:10) 6.39 (18:50) 0 0 0 0 0
13-09-2020 24.6 (15:30) 18 (00:00) 21.3 6.67 (13:10) 4.44 (13:10) 0 0 0 0 0
12-09-2020 23.7 (17:00) 19.5 (00:00) 21.6 9.17 (03:00) 6.11 (02:50) 0 0 0 0 0
11-09-2020 22.8 (13:10) 20 (00:00) 21.4 11.11 (16:40) 7.5 (17:10) 0 0 0 0 0
10-09-2020 24.3 (14:00) 19.9 (00:00) 22.1 12.78 (12:30) 9.44 (10:40) 0 0 0 0 0
09-09-2020 27.4 (14:30) 20.6 (00:00) 24 14.44 (16:50) 9.44 (14:40) 0 0 0 0 0
08-09-2020 27.2 (11:10) 20.3 (00:00) 23.8 14.17 (11:20) 9.44 (05:20) 0 0 0 0 0
07-09-2020 27.4 (19:50) 20.2 (02:40) 23.8 14.44 (23:00) 10 (23:00) 0 0 0 0 0
06-09-2020 25.4 (15:50) 19.1 (00:00) 22.3 9.17 (15:00) 5.28 (18:00) 0 0 0 0 0
05-09-2020 24.8 (13:00) 18.9 (00:00) 21.8 7.22 (15:50) 4.72 (15:40) 0 0 0 0 0
04-09-2020 24.4 (15:00) 19.1 (00:00) 21.8 6.67 (12:00) 4.17 (12:00) 0 0 0 0 0
03-09-2020 24.3 (14:10) 19.4 (00:00) 21.8 11.11 (01:30) 6.67 (01:30) 0 0 0 0 0
02-09-2020 25.7 (12:20) 19.3 (00:00) 22.5 11.94 (22:30) 7.22 (22:40) 0 0 0 0 0
01-09-2020 29 (15:50) 18 (00:00) 23.5 7.5 (16:40) 4.72 (01:00) 0 0 0 0 0
31-08-2020 22.3 (15:20) 19.4 (00:00) 20.8 12.78 (12:40) 9.17 (12:20) 0 0 0 0 0
30-08-2020 22.8 (12:10) 18.6 (00:00) 20.7 15 (08:30) 10.83 (11:30) 0 0 0 0 0
29-08-2020 22.2 (17:10) 19.2 (00:00) 20.7 16.67 (02:20) 10.56 (18:10) 0.4 0 0 0.4 0
28-08-2020 25.8 (14:40) 20.4 (00:00) 23.1 16.67 (12:40) 10.83 (16:00) 0 0 0 0 0

Gráficas

Temp. máximas Temp. mínimas Temp. medias Precipitaciones Rachas de viento máximas Velocidades máximas media en intervalos de 10 minutos

Datos horarios

Fecha y hora oficial Temperatura (ºC) Velocidad del viento (km/h) Dirección del viento Racha (km/h) Dirección de racha Precipitación (mm) Presión (hPa) Tendencia (hPa) Humedad (%)
2020-09-26 23:00:00 20.1 27 Norte 50 Nordeste 0 -- -- 83
2020-09-26 22:00:00 20.3 30 Nordeste 42 Norte 0 -- -- 83
2020-09-26 21:00:00 20.4 29 Norte 43 Norte 0 -- -- 83
2020-09-26 20:00:00 20.6 26 Norte 41 Norte 0 -- -- 84
2020-09-26 19:00:00 21 32 Nordeste 45 Nordeste 0 -- -- 81
2020-09-26 18:00:00 21.7 28 Nordeste 49 Norte 0 -- -- 79
2020-09-26 17:00:00 22.3 29 Nordeste 53 Norte 0 -- -- 75
2020-09-26 16:00:00 23.2 33 Nordeste 53 Nordeste 0 -- -- 72
2020-09-26 15:00:00 23.5 32 Nordeste 54 Norte 0 -- -- 72
2020-09-26 14:00:00 23.7 30 Nordeste 59 Nordeste 0 -- -- 71
2020-09-26 13:00:00 23.5 31 Nordeste 56 Nordeste 0 -- -- 72
2020-09-26 12:00:00 23.1 30 Nordeste 57 Nordeste 0 -- -- 75
2020-09-26 11:00:00 21.8 28 Nordeste 44 Nordeste 0 -- -- 81
2020-09-26 10:00:00 20.9 27 Nordeste 48 Norte 0 -- -- 86
2020-09-26 09:00:00 20.6 26 Nordeste 42 Nordeste 0 -- -- 88
2020-09-26 08:00:00 20.5 25 Nordeste 46 Nordeste 0 -- -- 90
2020-09-26 07:00:00 20.7 27 Nordeste 43 Nordeste 0 -- -- 91
2020-09-26 06:00:00 20.9 25 Nordeste 43 Norte 0 -- -- 92
2020-09-26 05:00:00 21 25 Nordeste 43 Nordeste 0 -- -- 92
2020-09-26 04:00:00 21 22 Nordeste 36 Nordeste 0 -- -- 92
2020-09-26 03:00:00 21.2 21 Norte 33 Nordeste 0 -- -- 92
2020-09-26 02:00:00 21.2 15 Nordeste 27 Nordeste 0 -- -- 92
2020-09-26 01:00:00 21.5 18 Nordeste 29 Norte 0 -- -- 92
2020-09-26 00:00:00 21.6 17 Norte 26 Nordeste 0 -- -- 88
2020-09-25 23:00:00 21.6 14 Nordeste 21 Norte 0 -- -- 90
2020-09-25 22:00:00 21.8 11 Nordeste 25 Norte 0 -- -- 89
2020-09-25 21:00:00 22.8 19 Nordeste 28 Nordeste 0 -- -- 77
2020-09-25 20:00:00 22.6 13 Nordeste 31 Nordeste 0 -- -- 85
2020-09-25 19:00:00 24.3 18 Nordeste 34 Nordeste 0 -- -- 72
2020-09-25 18:00:00 25.8 23 Nordeste 33 Nordeste 0 -- -- 57
2020-09-25 17:00:00 26 21 Nordeste 28 Nordeste 0 -- -- 69
2020-09-25 16:00:00 26.6 19 Norte 28 Norte 0 -- -- 68
2020-09-25 15:00:00 27.8 17 Nordeste 27 Nordeste 0 -- -- 53
2020-09-25 14:00:00 27 17 Norte 25 Norte 0 -- -- 60
2020-09-25 13:00:00 25.8 17 Norte 24 Norte 0 -- -- 64
2020-09-25 12:00:00 25.7 8 Nordeste 20 Nordeste 0 -- -- 69
2020-09-25 11:00:00 23.6 11 Nordeste 21 Nordeste 0 -- -- 78
2020-09-25 10:00:00 23 12 Nordeste 19 Nordeste 0 -- -- 84
2020-09-25 09:00:00 21.3 4 Nordeste 20 Este 0 -- -- 92
2020-09-25 08:00:00 20.8 12 Este 16 Este 0 -- -- 92
2020-09-25 07:00:00 21 5 Sudoeste 25 Nordeste 0 -- -- 90
2020-09-25 06:00:00 20.9 16 Nordeste 26 Nordeste 0 -- -- 89
2020-09-25 05:00:00 20.8 8 Nordeste 19 Norte 0 -- -- 92
2020-09-25 04:00:00 20.6 10 Norte 17 Norte 0 -- -- 90
2020-09-25 03:00:00 21 9 Norte 17 Norte 0 -- -- 93
2020-09-25 02:00:00 21 9 Este 15 Este 0 -- -- 93
2020-09-25 01:00:00 21.5 10 Norte 13 Norte 0 -- -- 88
2020-09-25 00:00:00 21.4 8 Este 9 Sudeste 0 -- -- 84
2020-09-24 23:00:00 21.8 3 Nordeste 11 Nordeste 0 -- -- 89
2020-09-24 22:00:00 22.4 6 Norte 10 Norte 0 -- -- 89
2020-09-24 21:00:00 23.2 4 Noroeste 10 Norte 0 -- -- 81
2020-09-24 20:00:00 23.8 5 Norte 13 Norte 0 -- -- 72
2020-09-24 19:00:00 24.8 9 Norte 19 Norte 0 -- -- 67
2020-09-24 18:00:00 26.7 14 Noroeste 22 Noroeste 0 -- -- 54
2020-09-24 17:00:00 28.4 14 Noroeste 25 Noroeste 0 -- -- 50
2020-09-24 16:00:00 29.3 12 Noroeste 21 Noroeste 0 -- -- 46
2020-09-24 15:00:00 28.3 14 Noroeste 27 Oeste 0 -- -- 47
2020-09-24 14:00:00 28.1 14 Noroeste 28 Oeste 0 -- -- 51
2020-09-24 13:00:00 28.9 19 Oeste 32 Oeste 0 -- -- 43
2020-09-24 12:00:00 27.8 15 Oeste 28 Oeste 0 -- -- 46
2020-09-24 11:00:00 24.7 12 Oeste 23 Oeste 0 -- -- 69
2020-09-24 10:00:00 24.9 16 Oeste 21 Oeste 0 -- -- 69
2020-09-24 09:00:00 22.8 8 Noroeste 18 Sudoeste 0 -- -- 66
2020-09-24 08:00:00 20.5 3 Sudoeste 9 Sudoeste 0 -- -- 74
2020-09-24 07:00:00 21 7 Sur 18 Este 0 -- -- 75
2020-09-24 06:00:00 20.5 14 Sudeste 17 Sudeste 0 -- -- 90
2020-09-24 05:00:00 20.8 5 Nordeste 9 Norte 0 -- -- 84
2020-09-24 04:00:00 21.2 4 Noroeste 9 Norte 0 -- -- 74
2020-09-24 03:00:00 22.3 5 Norte 19 Nordeste 0 -- -- 65
2020-09-24 02:00:00 21.6 3 Nordeste 18 Nordeste 0 -- -- 72
2020-09-24 01:00:00 22.3 6 Este 25 Norte 0 -- -- 79
2020-09-24 00:00:00 21.5 13 Norte 23 Norte 0 -- -- 90
2020-09-23 23:00:00 21.7 11 Norte 24 Norte 0 -- -- 92
2020-09-23 22:00:00 21.8 14 Norte 26 Noroeste 0 -- -- 92
2020-09-23 21:00:00 22.2 15 Noroeste 29 Noroeste 0 -- -- 89
2020-09-23 20:00:00 22.3 22 Noroeste 33 Noroeste 0 -- -- 87
2020-09-23 19:00:00 23.6 21 Noroeste 32 Noroeste 0 -- -- 76
2020-09-23 18:00:00 25.2 21 Noroeste 29 Oeste 0 -- -- 65
2020-09-23 17:00:00 25.2 15 Norte 30 Oeste 0 -- -- 60
2020-09-23 16:00:00 25.9 13 Norte 27 Norte 0 -- -- 62
2020-09-23 15:00:00 26.4 18 Norte 30 Norte 0 -- -- 51
2020-09-23 14:00:00 26.2 19 Norte 31 Norte 0 -- -- 52
2020-09-23 13:00:00 25.5 18 Norte 28 Norte 0 -- -- 58
2020-09-23 12:00:00 24.3 18 Norte 27 Norte 0 -- -- 73
2020-09-23 11:00:00 23.5 14 Norte 20 Norte 0 -- -- 73
2020-09-23 10:00:00 22.3 11 Noroeste 21 Norte 0 -- -- 84
2020-09-23 09:00:00 20.8 14 Norte 25 Nordeste 0 -- -- 90
2020-09-23 08:00:00 20.5 6 Norte 21 Norte 0 -- -- 95
2020-09-23 07:00:00 20.7 15 Norte 24 Norte 0 -- -- 94
2020-09-23 06:00:00 20.8 13 Norte 29 Nordeste 0 -- -- 93
2020-09-23 05:00:00 20.8 8 Norte 15 Norte 0 -- -- 91
2020-09-23 04:00:00 21.4 8 Norte 33 Nordeste 0 -- -- 75
2020-09-23 03:00:00 20.4 15 Nordeste 30 Norte 0 -- -- 75
2020-09-23 02:00:00 20.6 17 Norte 24 Nordeste 0 -- -- 93
2020-09-23 01:00:00 20.9 15 Norte 24 Norte 0 -- -- 92
2020-09-23 00:00:00 21 14 Norte 22 Norte 0 -- -- 92
2020-09-22 23:00:00 21.1 16 Norte 25 Norte 0 -- -- 91
2020-09-22 22:00:00 21.4 14 Norte 29 Norte 0 -- -- 91
2020-09-22 21:00:00 21.4 15 Norte 30 Norte 0 -- -- 90
2020-09-22 20:00:00 21.7 21 Norte 26 Norte 0 -- -- 89
2020-09-22 19:00:00 22.4 17 Norte 26 Norte 0 -- -- 86
2020-09-22 18:00:00 23.6 17 Norte 26 Norte 0 -- -- 80
2020-09-22 17:00:00 25 14 Nordeste 26 Norte 0 -- -- 70
2020-09-22 16:00:00 25.6 18 Norte 26 Norte 0 -- -- 72
2020-09-22 15:00:00 26.9 14 Norte 22 Norte 0 -- -- 66
2020-09-22 14:00:00 26.2 11 Nordeste 22 Norte 0 -- -- 66
2020-09-22 13:00:00 25.2 11 Nordeste 24 Nordeste 0 -- -- 70
2020-09-22 12:00:00 24.5 13 Norte 27 Norte 0 -- -- 74
2020-09-22 11:00:00 23.3 15 Nordeste 22 Norte 0 -- -- 81
2020-09-22 10:00:00 22.5 15 Nordeste 25 Nordeste 0 -- -- 81
2020-09-22 09:00:00 20.7 14 Nordeste 28 Nordeste 0 -- -- 92
2020-09-22 08:00:00 20.3 17 Nordeste 28 Nordeste 0 -- -- 92
2020-09-22 07:00:00 20.4 12 Nordeste 23 Nordeste 0 -- -- 92
2020-09-22 06:00:00 20.5 13 Nordeste 23 Nordeste 0 -- -- 93
2020-09-22 05:00:00 20.3 12 Nordeste 21 Norte 0 -- -- 93
2020-09-22 04:00:00 20.2 13 Nordeste 25 Nordeste 0 -- -- 93
2020-09-22 03:00:00 20.3 11 Nordeste 24 Nordeste 0 -- -- 92
2020-09-22 02:00:00 20.3 13 Nordeste 27 Norte 0 -- -- 92
2020-09-22 01:00:00 20.5 14 Norte 24 Nordeste 0 -- -- 93
2020-09-22 00:00:00 20.4 10 Nordeste 23 Nordeste 0 -- -- 91
2020-09-21 23:00:00 20.6 10 Nordeste 21 Norte 0 -- -- 90
2020-09-21 22:00:00 20.8 15 Norte 26 Norte 0 -- -- 91
2020-09-21 21:00:00 21 9 Nordeste 21 Nordeste 0 -- -- 89
2020-09-21 20:00:00 21.5 10 Nordeste 27 Nordeste 0 -- -- 87
2020-09-21 19:00:00 22.7 18 Norte 30 Norte 0 -- -- 82
2020-09-21 18:00:00 23.5 18 Nordeste 28 Norte 0 -- -- 80
2020-09-21 17:00:00 24 17 Norte 28 Nordeste 0 -- -- 79
2020-09-21 16:00:00 25 16 Norte 27 Norte 0 -- -- 75
2020-09-21 15:00:00 26 15 Norte 23 Nordeste 0 -- -- 68
2020-09-21 14:00:00 25.8 15 Nordeste 28 Norte 0 -- -- 70
2020-09-21 13:00:00 24.6 21 Norte 36 Norte 0 -- -- 74
2020-09-21 12:00:00 24.3 21 Nordeste 29 Nordeste 0 -- -- 74
2020-09-21 11:00:00 23 16 Norte 29 Norte 0 -- -- 82
2020-09-21 10:00:00 21.7 11 Nordeste 24 Nordeste 0 -- -- 87
2020-09-21 09:00:00 20.6 14 Norte 24 Nordeste 0 -- -- 94
2020-09-21 08:00:00 20.1 12 Norte 22 Norte 0 -- -- 95
2020-09-21 07:00:00 20.1 11 Norte 18 Norte 0 -- -- 95
2020-09-21 06:00:00 20.1 12 Nordeste 21 Norte 0 -- -- 94
2020-09-21 05:00:00 20.2 12 Norte 22 Norte 0 -- -- 94
2020-09-21 04:00:00 20.2 16 Norte 28 Norte 0 -- -- 94
2020-09-21 03:00:00 20.2 14 Norte 24 Nordeste 0 -- -- 93
2020-09-21 02:00:00 20.3 14 Nordeste 24 Norte 0 -- -- 93
2020-09-21 01:00:00 20.4 12 Nordeste 21 Nordeste 0 -- -- 93
2020-09-21 00:00:00 20.5 13 Norte 24 Norte 0 -- -- 93
2020-09-20 23:00:00 20.4 15 Norte 27 Norte 0 -- -- 92
2020-09-20 22:00:00 20.5 17 Norte 23 Norte 0 -- -- 93
2020-09-20 21:00:00 20.7 10 Norte 24 Norte 0 -- -- 91
2020-09-20 20:00:00 21.1 13 Norte 26 Norte 0 -- -- 87
2020-09-20 19:00:00 22.2 18 Nordeste 30 Nordeste 0 -- -- 83
2020-09-20 18:00:00 23.2 20 Norte 31 Norte 0 -- -- 77
2020-09-20 17:00:00 23.9 22 Norte 33 Norte 0 -- -- 73
2020-09-20 16:00:00 24.4 18 Nordeste 35 Norte 0 -- -- 72
2020-09-20 15:00:00 24.2 21 Norte 33 Nordeste 0 -- -- 73
2020-09-20 14:00:00 24.5 19 Norte 32 Nordeste 0 -- -- 70
2020-09-20 13:00:00 24.3 20 Norte 34 Norte 0 -- -- 70
2020-09-20 12:00:00 23.4 20 Norte 32 Norte 0 -- -- 74
2020-09-20 11:00:00 22.6 22 Norte 35 Nordeste 0 -- -- 77
2020-09-20 10:00:00 21.4 22 Nordeste 39 Nordeste 0 -- -- 83
2020-09-20 09:00:00 20.1 21 Nordeste 34 Nordeste 0 -- -- 90
2020-09-20 08:00:00 19.6 22 Nordeste 39 Nordeste 0 -- -- 91
2020-09-20 07:00:00 19.6 22 Nordeste 37 Nordeste 0 -- -- 91
2020-09-20 06:00:00 19.6 21 Nordeste 35 Norte 0 -- -- 92
2020-09-20 05:00:00 19.5 22 Nordeste 33 Nordeste 0 -- -- 91
2020-09-20 04:00:00 19.4 22 Nordeste 33 Nordeste 0 -- -- 90
2020-09-20 03:00:00 19.6 21 Nordeste 36 Nordeste 0 -- -- 89
2020-09-20 02:00:00 19.7 19 Nordeste 34 Nordeste 0 -- -- 89
2020-09-20 01:00:00 19.6 21 Nordeste 50 Nordeste 0 -- -- 89
2020-09-20 00:00:00 19.7 26 Nordeste 43 Norte 0 -- -- 89
2020-09-19 23:00:00 19.8 27 Nordeste 45 Nordeste 0 -- -- 88
2020-09-19 22:00:00 19.9 23 Nordeste 38 Nordeste 0 -- -- 85
2020-09-19 21:00:00 20.2 21 Nordeste 37 Nordeste 0 -- -- 84
2020-09-19 20:00:00 20.6 25 Nordeste 39 Nordeste 0 -- -- 82
2020-09-19 19:00:00 21.6 23 Nordeste 40 Nordeste 0 -- -- 78
2020-09-19 18:00:00 22.8 25 Nordeste 42 Norte 0 -- -- 72
2020-09-19 17:00:00 23.3 26 Nordeste 49 Norte 0 -- -- 69
2020-09-19 16:00:00 24.2 28 Norte 43 Nordeste 0 -- -- 65
2020-09-19 15:00:00 24.3 27 Norte 41 Norte 0 -- -- 65
2020-09-19 14:00:00 24.1 27 Nordeste 45 Nordeste 0 -- -- 65
2020-09-19 13:00:00 24.1 25 Nordeste 39 Nordeste 0 -- -- 65
2020-09-19 12:00:00 23.2 22 Nordeste 38 Nordeste 0 -- -- 66
2020-09-19 11:00:00 22.2 22 Nordeste 44 Nordeste 0 -- -- 70
2020-09-19 10:00:00 21.1 24 Nordeste 39 Nordeste 0 -- -- 76
2020-09-19 09:00:00 20 19 Nordeste 33 Nordeste 0 -- -- 82
2020-09-19 08:00:00 19.1 19 Nordeste 37 Nordeste 0 -- -- 85
2020-09-19 07:00:00 19.1 18 Nordeste 37 Nordeste 0 -- -- 87
2020-09-19 06:00:00 19.2 20 Nordeste 37 Nordeste 0 -- -- 88
2020-09-19 05:00:00 19.3 18 Nordeste 32 Este 0 -- -- 88
2020-09-19 04:00:00 19.3 18 Nordeste 32 Nordeste 0 -- -- 88
2020-09-19 03:00:00 19.5 19 Nordeste 34 Nordeste 0 -- -- 87
2020-09-19 02:00:00 19.5 21 Nordeste 38 Norte 0 -- -- 86
2020-09-19 01:00:00 19.7 20 Nordeste 31 Nordeste 0 -- -- 88
2020-09-19 00:00:00 20 17 Nordeste 32 Nordeste 0 -- -- 86
2020-09-18 23:00:00 20.3 17 Nordeste 30 Norte 0 -- -- 84
2020-09-18 22:00:00 20.4 16 Norte 26 Norte 0 -- -- 84
2020-09-18 21:00:00 20.5 16 Norte 26 Norte 0 -- -- 84
2020-09-18 20:00:00 20.9 16 Norte 25 Norte 0 -- -- 81
2020-09-18 19:00:00 22 15 Norte 26 Norte 0 -- -- 76
2020-09-18 18:00:00 22.7 18 Norte 27 Norte 0 -- -- 73
2020-09-18 17:00:00 23.1 18 Norte 29 Norte 0 -- -- 68
2020-09-18 16:00:00 23.9 17 Norte 29 Norte 0 -- -- 64
2020-09-18 15:00:00 23.8 17 Norte 28 Norte 0 -- -- 65
2020-09-18 14:00:00 23.2 13 Norte 26 Norte 0 -- -- 69
2020-09-18 13:00:00 23.1 15 Norte 27 Norte 0 -- -- 73
2020-09-18 12:00:00 22.9 16 Norte 28 Norte 0 -- -- 69
2020-09-18 11:00:00 22.3 15 Nordeste 24 Nordeste 0 -- -- 71
2020-09-18 10:00:00 20.9 15 Norte 21 Norte 0 -- -- 81
2020-09-18 09:00:00 20.1 12 Norte 16 Norte 0 -- -- 86
2020-09-18 08:00:00 19.4 7 Norte 15 Norte 0 -- -- 87
2020-09-18 07:00:00 19.5 8 Norte 17 Norte 0 -- -- 87
2020-09-18 06:00:00 19.7 9 Norte 18 Noroeste 0 -- -- 87
2020-09-18 05:00:00 19.7 11 Norte 21 Noroeste 0 -- -- 86
2020-09-18 04:00:00 19.8 13 Noroeste 22 Noroeste 0 -- -- 85
2020-09-18 03:00:00 19.9 11 Noroeste 24 Noroeste 0 -- -- 87
2020-09-18 02:00:00 20.2 18 Noroeste 24 Noroeste 0 -- -- 86
2020-09-18 01:00:00 20.1 13 Noroeste 22 Norte 0 -- -- 85
2020-09-18 00:00:00 20.2 14 Noroeste 23 Noroeste 0 -- -- 84
2020-09-17 23:00:00 20.3 14 Norte 26 Norte 0 -- -- 81
2020-09-17 22:00:00 20.3 12 Norte 26 Noroeste 0 -- -- 83
2020-09-17 21:00:00 20.6 17 Noroeste 29 Noroeste 0 -- -- 87
2020-09-17 20:00:00 20.9 19 Noroeste 28 Noroeste 0 -- -- 87
2020-09-17 19:00:00 21.5 21 Noroeste 34 Noroeste 0 -- -- 86
2020-09-17 18:00:00 21.8 16 Norte 31 Noroeste 0 -- -- 84
2020-09-17 17:00:00 22.6 14 Noroeste 23 Noroeste 0 -- -- 80
2020-09-17 16:00:00 23.2 9 Norte 17 Noroeste 0 -- -- 76
2020-09-17 15:00:00 23.3 8 Noroeste 21 Noroeste 0 -- -- 78
2020-09-17 14:00:00 24 10 Norte 16 Nordeste 0 -- -- 76
2020-09-17 13:00:00 22.8 10 Norte 26 Noroeste 0 -- -- 81
2020-09-17 12:00:00 22.3 13 Norte 21 Noroeste 0 -- -- 81
2020-09-17 11:00:00 21.7 11 Norte 21 Norte 0 -- -- 88
2020-09-17 10:00:00 21.6 12 Norte 18 Norte 0 -- -- 89
2020-09-17 09:00:00 21.7 7 Norte 12 Norte 0 -- -- 78
2020-09-17 08:00:00 21.7 7 Norte 15 Nordeste 0 -- -- 65
2020-09-17 07:00:00 20.9 8 Nordeste 15 Nordeste 0 -- -- 69
2020-09-17 06:00:00 20.7 10 Nordeste 16 Nordeste 0 -- -- 89
2020-09-17 05:00:00 21 8 Norte 24 Nordeste 0 -- -- 86
2020-09-17 04:00:00 21.1 13 Nordeste 19 Norte 0 -- -- 87
2020-09-17 03:00:00 21.5 12 Norte 21 Norte 0 -- -- 92
2020-09-17 02:00:00 21.8 11 Norte 21 Noroeste 0 -- -- 92
2020-09-17 01:00:00 21.9 4 Nordeste 17 Norte 0 -- -- 90
2020-09-17 00:00:00 22.6 9 Norte 21 Noroeste 0 -- -- 87
2020-09-16 23:00:00 25.1 13 Sudeste 24 Sudeste 0 -- -- 52
2020-09-16 22:00:00 22.3 7 Este 18 Este 0 -- -- 90
2020-09-16 21:00:00 23.4 11 Norte 18 Norte 0 -- -- 84
2020-09-16 20:00:00 26.6 6 Este 14 Sudeste 0 -- -- 52
2020-09-16 19:00:00 24.6 5 Este 15 Norte 0 -- -- 74
2020-09-16 18:00:00 25.4 10 Norte 23 Norte 0 -- -- 70
2020-09-16 17:00:00 26.2 15 Norte 30 Norte 0 -- -- 65
2020-09-16 16:00:00 27.7 17 Nordeste 29 Nordeste 0 -- -- 47
2020-09-16 15:00:00 29.3 17 Norte 30 Nordeste 0 -- -- 44
2020-09-16 14:00:00 30.1 18 Nordeste 33 Nordeste 0 -- -- 32
2020-09-16 13:00:00 29.8 18 Nordeste 39 Nordeste 0 -- -- 35
2020-09-16 12:00:00 29.5 17 Nordeste 27 Nordeste 0 -- -- 33
2020-09-16 11:00:00 25.2 14 Norte 42 Nordeste 0 -- -- 41
2020-09-16 10:00:00 21.8 18 Este 44 Nordeste 0 -- -- 84
2020-09-16 09:00:00 21.2 19 Norte 48 Nordeste 0 -- -- 85
2020-09-16 08:00:00 20.6 22 Nordeste 39 Nordeste 0 -- -- 95
2020-09-16 07:00:00 20.6 18 Norte 32 Nordeste 0 -- -- 95
2020-09-16 06:00:00 20.4 19 Norte 27 Norte 0 -- -- 93
2020-09-16 05:00:00 20.4 13 Norte 21 Norte 0 -- -- 91
2020-09-16 04:00:00 20.4 12 Este 44 Nordeste 0 -- -- 90
2020-09-16 03:00:00 20.5 30 Norte 49 Nordeste 0 -- -- 88
2020-09-16 02:00:00 20.8 33 Nordeste 50 Nordeste 0 -- -- 83
2020-09-16 01:00:00 20.5 26 Norte 40 Nordeste 0 -- -- 94
2020-09-16 00:00:00 20.7 22 Nordeste 31 Norte 0 -- -- 94
2020-09-15 23:00:00 20.8 13 Norte 26 Norte 0 -- -- 93
2020-09-15 22:00:00 20.9 18 Norte 30 Norte 0 -- -- 93
2020-09-15 21:00:00 21 17 Norte 22 Norte 0 -- -- 90
2020-09-15 20:00:00 21.3 15 Este 31 Nordeste 0 -- -- 85
2020-09-15 19:00:00 21.5 17 Norte 30 Norte 0 -- -- 87
2020-09-15 18:00:00 22.8 24 Nordeste 46 Nordeste 0 -- -- 73
2020-09-15 17:00:00 22.7 20 Nordeste 33 Nordeste 0 -- -- 79
2020-09-15 16:00:00 21.4 21 Nordeste 45 Norte 0 -- -- 84
2020-09-15 15:00:00 22.1 29 Norte 45 Norte 0 -- -- 83
2020-09-15 14:00:00 23.7 23 Nordeste 36 Norte 0 -- -- 76
2020-09-15 13:00:00 21.9 18 Norte 47 Norte 0 -- -- 83
2020-09-15 12:00:00 22 31 Norte 46 Norte 0 -- -- 81
2020-09-15 11:00:00 21.8 14 Nordeste 33 Nordeste 0 -- -- 83
2020-09-15 10:00:00 21.1 19 Nordeste 38 Norte 0 -- -- 87
2020-09-15 09:00:00 20.4 20 Norte 35 Nordeste 0 -- -- 91
2020-09-15 08:00:00 19.9 15 Nordeste 30 Nordeste 0 -- -- 90
2020-09-15 07:00:00 19.8 19 Nordeste 37 Nordeste 0 -- -- 92
2020-09-15 06:00:00 20 23 Nordeste 43 Nordeste 0 -- -- 91
2020-09-15 05:00:00 19.9 24 Nordeste 41 Nordeste 0 -- -- 91
2020-09-15 04:00:00 19.9 27 Nordeste 40 Nordeste 0 -- -- 91
2020-09-15 03:00:00 19.9 16 Nordeste 31 Nordeste 0 -- -- 90
2020-09-15 02:00:00 20.2 17 Nordeste 36 Nordeste 0 -- -- 87
2020-09-15 01:00:00 20.1 20 Nordeste 39 Norte 0 -- -- 88
2020-09-15 00:00:00 20.2 21 Nordeste 32 Norte 0 -- -- 85
2020-09-14 23:00:00 20.4 13 Norte 29 Nordeste 0 -- -- 85
2020-09-14 22:00:00 20.7 17 Nordeste 34 Nordeste 0 -- -- 78
2020-09-14 21:00:00 20.7 16 Norte 33 Norte 0 -- -- 80
2020-09-14 20:00:00 21.1 19 Nordeste 36 Norte 0 -- -- 76
2020-09-14 19:00:00 22.3 23 Norte 37 Norte 0 -- -- 75
2020-09-14 18:00:00 23.4 22 Norte 31 Nordeste 0 -- -- 71
2020-09-14 17:00:00 24 22 Nordeste 34 Nordeste 0 -- -- 67
2020-09-14 16:00:00 24.7 18 Nordeste 32 Norte 0 -- -- 63
2020-09-14 15:00:00 24.6 18 Norte 33 Nordeste 0 -- -- 68
2020-09-14 14:00:00 24.7 20 Norte 36 Nordeste 0 -- -- 66
2020-09-14 13:00:00 24.5 18 Norte 30 Norte 0 -- -- 67
2020-09-14 12:00:00 24.2 14 Norte 22 Norte 0 -- -- 66
2020-09-14 11:00:00 23.1 9 Nordeste 16 Norte 0 -- -- 71
2020-09-14 10:00:00 21.3 8 Nordeste 17 Norte 0 -- -- 81
2020-09-14 09:00:00 20 9 Nordeste 14 Nordeste 0 -- -- 90
2020-09-14 08:00:00 19.2 10 Nordeste 15 Norte 0 -- -- 92
2020-09-14 07:00:00 19.1 6 Norte 10 Norte 0 -- -- 94
2020-09-14 06:00:00 19.1 3 Nordeste 6 Este 0 -- -- 94
2020-09-14 05:00:00 19.3 6 Este 20 Nordeste 0 -- -- 93
2020-09-14 04:00:00 19.6 13 Nordeste 21 Norte 0 -- -- 92
2020-09-14 03:00:00 19.6 11 Nordeste 22 Nordeste 0 -- -- 92
2020-09-14 02:00:00 19.6 12 Norte 22 Norte 0 -- -- 93
2020-09-14 01:00:00 19.8 14 Norte 20 Nordeste 0 -- -- 92
2020-09-14 00:00:00 19.6 8 Nordeste 14 Nordeste 0 -- -- 92
2020-09-13 23:00:00 20.2 9 Nordeste 15 Nordeste 0 -- -- 90
2020-09-13 22:00:00 20.5 4 Norte 12 Norte 0 -- -- 89
2020-09-13 21:00:00 20.8 8 Norte 16 Norte 0 -- -- 86
2020-09-13 20:00:00 21.7 9 Norte 18 Norte 0 -- -- 81
2020-09-13 19:00:00 22.8 12 Norte 17 Norte 0 -- -- 70
2020-09-13 18:00:00 23.3 9 Norte 19 Norte 0 -- -- 71
2020-09-13 17:00:00 24 11 Norte 18 Norte 0 -- -- 70
2020-09-13 16:00:00 24.3 10 Norte 19 Norte 0 -- -- 69
2020-09-13 15:00:00 24.2 6 Norte 21 Noroeste 0 -- -- 69
2020-09-13 14:00:00 24.4 10 Sudeste 24 Este 0 -- -- 67
2020-09-13 13:00:00 24.4 11 Este 19 Nordeste 0 -- -- 67
2020-09-13 12:00:00 22.9 4 Sudeste 10 Sudeste 0 -- -- 70
2020-09-13 11:00:00 21.5 4 Nordeste 16 Nordeste 0 -- -- 81
2020-09-13 10:00:00 20.4 5 Norte 9 Nordeste 0 -- -- 86
2020-09-13 09:00:00 19.5 2 Oeste 15 Este 0 -- -- 92
2020-09-13 08:00:00 18.4 9 Este 13 Nordeste 0 -- -- 93
2020-09-13 07:00:00 18.5 2 Oeste 9 Noroeste 0 -- -- 93
2020-09-13 06:00:00 18.4 3 Sudoeste 9 Noroeste 0 -- -- 93
2020-09-13 05:00:00 18 0 Calma 4 Sudoeste 0 -- -- 92
2020-09-13 04:00:00 18.5 2 Sur 12 Sudeste 0 -- -- 92
2020-09-13 03:00:00 18.9 8 Sudeste 12 Sudeste 0 -- -- 91
2020-09-13 02:00:00 19.2 5 Este 9 Este 0 -- -- 90
2020-09-13 01:00:00 19.3 7 Este 8 Este 0 -- -- 89
2020-09-13 00:00:00 19.9 4 Norte 12 Norte 0 -- -- 88
2020-09-12 23:00:00 20.1 8 Nordeste 15 Nordeste 0 -- -- 87
2020-09-12 22:00:00 20.5 8 Norte 17 Norte 0 -- -- 86
2020-09-12 21:00:00 20.7 12 Norte 17 Norte 0 -- -- 85
2020-09-12 20:00:00 21 13 Norte 22 Norte 0 -- -- 84
2020-09-12 19:00:00 22 14 Norte 22 Norte 0 -- -- 77
2020-09-12 18:00:00 22.7 13 Norte 22 Norte 0 -- -- 71
2020-09-12 17:00:00 23.7 12 Norte 22 Norte 0 -- -- 67
2020-09-12 16:00:00 23.5 12 Norte 24 Norte 0 -- -- 70
2020-09-12 15:00:00 23.1 13 Norte 26 Norte 0 -- -- 72
2020-09-12 14:00:00 23.1 14 Norte 25 Noroeste 0 -- -- 72
2020-09-12 13:00:00 23 15 Norte 26 Norte 0 -- -- 70
2020-09-12 12:00:00 21.9 15 Norte 22 Nordeste 0 -- -- 77
2020-09-12 11:00:00 21.3 13 Norte 20 Norte 0 -- -- 79
2020-09-12 10:00:00 20.6 13 Norte 24 Nordeste 0 -- -- 83
2020-09-12 09:00:00 20 12 Nordeste 22 Nordeste 0 -- -- 86
2020-09-12 08:00:00 19.8 12 Nordeste 22 Nordeste 0 -- -- 90
2020-09-12 07:00:00 19.5 9 Norte 21 Norte 0 -- -- 90
2020-09-12 06:00:00 19.5 11 Norte 23 Nordeste 0 -- -- 90
2020-09-12 05:00:00 19.6 12 Norte 26 Norte 0 -- -- 87
2020-09-12 04:00:00 19.9 18 Norte 32 Norte 0 -- -- 86
2020-09-12 03:00:00 20.2 22 Norte 33 Norte 0 -- -- 86
2020-09-12 02:00:00 20.2 19 Norte 28 Norte 0 -- -- 86
2020-09-12 01:00:00 20.3 17 Norte 30 Norte 0 -- -- 85
2020-09-12 00:00:00 20.4 18 Norte 27 Norte 0 -- -- 85
2020-09-11 23:00:00 20.4 22 Norte 30 Norte 0 -- -- 83
2020-09-11 22:00:00 20.3 16 Norte 27 Norte 0 -- -- 84
2020-09-11 21:00:00 20.3 19 Norte 33 Norte 0 -- -- 84
2020-09-11 20:00:00 20.7 22 Norte 33 Norte 0 -- -- 81
2020-09-11 19:00:00 21.4 22 Norte 36 Norte 0 -- -- 79
2020-09-11 18:00:00 22 24 Norte 37 Norte 0 -- -- 77
2020-09-11 17:00:00 22.3 26 Norte 40 Norte 0 -- -- 77
2020-09-11 16:00:00 22.4 26 Norte 39 Norte 0 -- -- 76
2020-09-11 15:00:00 22.5 24 Norte 33 Norte 0 -- -- 77
2020-09-11 14:00:00 22.7 19 Norte 31 Norte 0 -- -- 74
2020-09-11 13:00:00 22.6 22 Norte 33 Norte 0 -- -- 74
2020-09-11 12:00:00 21.7 21 Norte 31 Norte 0 -- -- 78
2020-09-11 11:00:00 21.4 21 Norte 35 Norte 0 -- -- 78
2020-09-11 10:00:00 21.4 22 Norte 31 Norte 0 -- -- 81
2020-09-11 09:00:00 20.3 21 Norte 30 Norte 0 -- -- 85
2020-09-11 08:00:00 20.1 20 Norte 28 Norte 0 -- -- 86
2020-09-11 07:00:00 20.1 19 Norte 31 Norte 0 -- -- 86
2020-09-11 06:00:00 20.1 20 Norte 33 Norte 0 -- -- 86
2020-09-11 05:00:00 20.2 20 Norte 35 Norte 0 -- -- 85
2020-09-11 04:00:00 20.2 23 Norte 35 Norte 0 -- -- 84
2020-09-11 03:00:00 20.2 26 Norte 38 Norte 0 -- -- 83
2020-09-11 02:00:00 20.3 22 Norte 34 Norte 0 -- -- 83
2020-09-11 01:00:00 20.3 19 Norte 33 Norte 0 -- -- 83
2020-09-11 00:00:00 20.4 20 Norte 34 Norte 0 -- -- 83
2020-09-10 23:00:00 20.5 24 Norte 34 Norte 0 -- -- 83
2020-09-10 22:00:00 20.6 24 Norte 35 Norte 0 -- -- 83
2020-09-10 21:00:00 20.6 22 Norte 33 Norte 0 -- -- 83
2020-09-10 20:00:00 20.7 21 Norte 35 Norte 0 -- -- 82
2020-09-10 19:00:00 21.1 24 Norte 33 Norte 0 -- -- 79
2020-09-10 18:00:00 22.5 19 Norte 33 Norte 0 -- -- 75
2020-09-10 17:00:00 22.8 21 Norte 35 Norte 0 -- -- 73
2020-09-10 16:00:00 23.2 28 Norte 40 Norte 0 -- -- 71
2020-09-10 15:00:00 23.9 28 Norte 39 Norte 0 -- -- 68
2020-09-10 14:00:00 24.3 21 Nordeste 40 Nordeste 0 -- -- 67
2020-09-10 13:00:00 23.7 23 Nordeste 46 Nordeste 0 -- -- 69
2020-09-10 12:00:00 22.8 26 Norte 44 Norte 0 -- -- 71
2020-09-10 11:00:00 22.3 29 Norte 46 Norte 0 -- -- 74
2020-09-10 10:00:00 21.2 32 Norte 43 Norte 0 -- -- 77
2020-09-10 09:00:00 20.4 27 Norte 39 Norte 0 -- -- 82
2020-09-10 08:00:00 20 25 Norte 38 Norte 0 -- -- 84
2020-09-10 07:00:00 19.9 19 Norte 33 Norte 0 -- -- 86
2020-09-10 06:00:00 19.9 16 Norte 33 Norte 0 -- -- 87
2020-09-10 05:00:00 19.9 22 Norte 32 Norte 0 -- -- 88
2020-09-10 04:00:00 20.1 18 Norte 36 Nordeste 0 -- -- 89
2020-09-10 03:00:00 20.2 23 Norte 34 Nordeste 0 -- -- 89
2020-09-10 02:00:00 20.3 21 Norte 32 Norte 0 -- -- 92
2020-09-10 01:00:00 20.5 16 Norte 32 Norte 0 -- -- 92
2020-09-10 00:00:00 20.6 25 Nordeste 40 Norte 0 -- -- 89
2020-09-09 23:00:00 21.5 24 Norte 50 Nordeste 0 -- -- 86
2020-09-09 22:00:00 23.4 33 Nordeste 48 Nordeste 0 -- -- 42
2020-09-09 21:00:00 21.6 28 Nordeste 43 Nordeste 0 -- -- 76
2020-09-09 20:00:00 21.9 31 Nordeste 52 Norte 0 -- -- 80
2020-09-09 19:00:00 23.2 30 Norte 45 Nordeste 0 -- -- 76
2020-09-09 18:00:00 24.6 31 Norte 47 Norte 0 -- -- 70
2020-09-09 17:00:00 26.1 33 Nordeste 52 Norte 0 -- -- 60
2020-09-09 16:00:00 27.4 30 Nordeste 52 Norte 0 -- -- 48
2020-09-09 15:00:00 27.3 32 Nordeste 50 Nordeste 0 -- -- 51
2020-09-09 14:00:00 27.1 31 Nordeste 49 Norte 0 -- -- 50
2020-09-09 13:00:00 26.1 28 Norte 45 Norte 0 -- -- 64
2020-09-09 12:00:00 25.8 24 Norte 37 Norte 0 -- -- 58
2020-09-09 11:00:00 25.7 24 Norte 44 Nordeste 0 -- -- 56
2020-09-09 10:00:00 24.1 27 Nordeste 50 Nordeste 0 -- -- 60
2020-09-09 09:00:00 22.5 28 Nordeste 51 Norte 0 -- -- 71
2020-09-09 08:00:00 22.4 30 Nordeste 47 Nordeste 0 -- -- 66
2020-09-09 07:00:00 21.4 24 Nordeste 39 Norte 0 -- -- 81
2020-09-09 06:00:00 21.9 27 Nordeste 45 Norte 0 -- -- 73
2020-09-09 05:00:00 22.6 27 Nordeste 42 Nordeste 0 -- -- 67
2020-09-09 04:00:00 22 21 Norte 37 Nordeste 0 -- -- 71
2020-09-09 03:00:00 22 25 Norte 41 Nordeste 0 -- -- 75
2020-09-09 02:00:00 22.6 26 Nordeste 44 Nordeste 0 -- -- 71
2020-09-09 01:00:00 21.9 18 Nordeste 40 Norte 0 -- -- 79
2020-09-09 00:00:00 22.7 25 Norte 42 Nordeste 0 -- -- 78
2020-09-08 23:00:00 24 28 Norte 45 Nordeste 0 -- -- 67
2020-09-08 22:00:00 22.8 28 Nordeste 42 Nordeste 0 -- -- 76
2020-09-08 21:00:00 22.9 21 Nordeste 40 Norte 0 -- -- 77
2020-09-08 20:00:00 23.9 26 Nordeste 36 Nordeste 0 -- -- 72
2020-09-08 19:00:00 24.7 24 Nordeste 38 Nordeste 0 -- -- 68
2020-09-08 18:00:00 25.3 28 Norte 42 Norte 0 -- -- 70
2020-09-08 17:00:00 25.9 27 Norte 40 Norte 0 -- -- 70
2020-09-08 16:00:00 26.3 27 Norte 38 Norte 0 -- -- 67
2020-09-08 15:00:00 27.1 22 Nordeste 35 Norte 0 -- -- 63
2020-09-08 14:00:00 27.1 22 Nordeste 37 Norte 0 -- -- 61
2020-09-08 13:00:00 26.6 24 Norte 44 Norte 0 -- -- 64
2020-09-08 12:00:00 26.9 27 Norte 51 Nordeste 0 -- -- 61
2020-09-08 11:00:00 26.6 28 Nordeste 46 Norte 0 -- -- 54
2020-09-08 10:00:00 24.9 25 Nordeste 36 Norte 0 -- -- 64
2020-09-08 09:00:00 23.3 24 Nordeste 38 Nordeste 0 -- -- 74
2020-09-08 08:00:00 21.9 23 Nordeste 31 Nordeste 0 -- -- 79
2020-09-08 07:00:00 21 20 Este 46 Nordeste 0 -- -- 81
2020-09-08 06:00:00 22 26 Nordeste 50 Nordeste 0 -- -- 71
2020-09-08 05:00:00 23.1 29 Norte 39 Nordeste 0 -- -- 67
2020-09-08 04:00:00 23.2 29 Nordeste 43 Nordeste 0 -- -- 65
2020-09-08 03:00:00 22.9 27 Nordeste 42 Norte 0 -- -- 70
2020-09-08 02:00:00 24 28 Nordeste 40 Nordeste 0 -- -- 58
2020-09-08 01:00:00 23.4 22 Nordeste 35 Nordeste 0 -- -- 70
2020-09-08 00:00:00 21.8 18 Este 50 Nordeste 0 -- -- 81
2020-09-07 23:00:00 27.4 36 Nordeste 52 Nordeste 0 -- -- 33
2020-09-07 22:00:00 23 31 Nordeste 50 Este 0 -- -- 71
2020-09-07 21:00:00 25.2 28 Nordeste 49 Nordeste 0 -- -- 57
2020-09-07 20:00:00 27.2 27 Nordeste 44 Norte 0 -- -- 30
2020-09-07 19:00:00 25.8 27 Nordeste 44 Nordeste 0 -- -- 40
2020-09-07 18:00:00 25.7 27 Norte 42 Nordeste 0 -- -- 67
2020-09-07 17:00:00 25.4 25 Norte 37 Norte 0 -- -- 69
2020-09-07 16:00:00 26.1 22 Norte 36 Norte 0 -- -- 67
2020-09-07 15:00:00 26.9 23 Norte 36 Nordeste 0 -- -- 60
2020-09-07 14:00:00 25.7 24 Norte 35 Norte 0 -- -- 65
2020-09-07 13:00:00 25.2 16 Norte 29 Norte 0 -- -- 69
2020-09-07 12:00:00 25.2 16 Norte 23 Norte 0 -- -- 67
2020-09-07 11:00:00 24.3 13 Nordeste 30 Nordeste 0 -- -- 75
2020-09-07 10:00:00 22.3 18 Nordeste 25 Nordeste 0 -- -- 84
2020-09-07 09:00:00 20.7 16 Nordeste 22 Norte 0 -- -- 93
2020-09-07 08:00:00 20.6 10 Norte 14 Norte 0 -- -- 94
2020-09-07 07:00:00 20.6 6 Norte 13 Norte 0 -- -- 93
2020-09-07 06:00:00 20.7 7 Norte 15 Norte 0 -- -- 93
2020-09-07 05:00:00 20.5 11 Norte 23 Nordeste 0 -- -- 94
2020-09-07 04:00:00 20.5 12 Norte 21 Nordeste 0 -- -- 94
2020-09-07 03:00:00 20.3 10 Nordeste 18 Nordeste 0 -- -- 94
2020-09-07 02:00:00 20.3 11 Nordeste 19 Nordeste 0 -- -- 93
2020-09-07 01:00:00 20.3 13 Nordeste 20 Este 0 -- -- 93
2020-09-07 00:00:00 20.4 12 Nordeste 18 Nordeste 0 -- -- 92
2020-09-06 23:00:00 20.5 14 Nordeste 21 Nordeste 0 -- -- 91
2020-09-06 22:00:00 20.9 13 Nordeste 22 Nordeste 0 -- -- 85
2020-09-06 21:00:00 20.9 13 Norte 19 Norte 0 -- -- 87
2020-09-06 20:00:00 21.5 14 Nordeste 24 Norte 0 -- -- 84
2020-09-06 19:00:00 22.6 17 Norte 27 Nordeste 0 -- -- 80
2020-09-06 18:00:00 24 19 Norte 27 Norte 0 -- -- 73
2020-09-06 17:00:00 24.5 18 Norte 28 Norte 0 -- -- 71
2020-09-06 16:00:00 25.1 14 Nordeste 27 Norte 0 -- -- 66
2020-09-06 15:00:00 24.7 18 Norte 33 Norte 0 -- -- 68
2020-09-06 14:00:00 24.6 17 Nordeste 27 Norte 0 -- -- 68
2020-09-06 13:00:00 24.1 14 Norte 24 Norte 0 -- -- 71
2020-09-06 12:00:00 23.3 13 Norte 23 Norte 0 -- -- 73
2020-09-06 11:00:00 22.6 12 Norte 21 Norte 0 -- -- 77
2020-09-06 10:00:00 21.2 10 Norte 18 Norte 0 -- -- 84
2020-09-06 09:00:00 20.1 7 Norte 11 Norte 0 -- -- 89
2020-09-06 08:00:00 19.1 3 Norte 9 Norte 0 -- -- 90
2020-09-06 07:00:00 19.3 5 Norte 14 Noroeste 0 -- -- 89
2020-09-06 06:00:00 19.6 5 Norte 13 Noroeste 0 -- -- 87
2020-09-06 05:00:00 19.6 5 Noroeste 10 Noroeste 0 -- -- 87
2020-09-06 04:00:00 19.8 4 Norte 14 Norte 0 -- -- 85
2020-09-06 03:00:00 20.1 7 Norte 12 Norte 0 -- -- 85
2020-09-06 02:00:00 20.4 8 Norte 15 Nordeste 0 -- -- 84
2020-09-06 01:00:00 20.6 12 Norte 19 Norte 0 -- -- 84
2020-09-06 00:00:00 20.7 9 Nordeste 16 Norte 0 -- -- 85
2020-09-05 23:00:00 20.7 12 Norte 21 Nordeste 0 -- -- 86
2020-09-05 22:00:00 20.7 13 Norte 22 Norte 0 -- -- 86
2020-09-05 21:00:00 20.9 11 Norte 19 Norte 0 -- -- 85
2020-09-05 20:00:00 21.6 11 Noroeste 17 Norte 0 -- -- 80
2020-09-05 19:00:00 22.8 12 Norte 20 Norte 0 -- -- 73
2020-09-05 18:00:00 24 8 Norte 22 Noroeste 0 -- -- 66
2020-09-05 17:00:00 23.9 12 Noroeste 23 Noroeste 0 -- -- 70
2020-09-05 16:00:00 23.8 14 Norte 26 Norte 0 -- -- 69
2020-09-05 15:00:00 24.5 14 Norte 23 Norte 0 -- -- 66
2020-09-05 14:00:00 24.2 13 Norte 23 Norte 0 -- -- 67
2020-09-05 13:00:00 24.8 12 Norte 20 Noroeste 0 -- -- 65
2020-09-05 12:00:00 23.3 10 Norte 20 Norte 0 -- -- 70
2020-09-05 11:00:00 22.5 10 Norte 17 Nordeste 0 -- -- 73
2020-09-05 10:00:00 20.8 4 Norte 10 Norte 0 -- -- 80
2020-09-05 09:00:00 19.8 2 Nordeste 8 Noroeste 0 -- -- 85
2020-09-05 08:00:00 19 5 Noroeste 12 Nordeste 0 -- -- 87
2020-09-05 07:00:00 19.2 6 Norte 14 Noroeste 0 -- -- 86
2020-09-05 06:00:00 19.4 7 Noroeste 14 Noroeste 0 -- -- 86
2020-09-05 05:00:00 19.5 6 Norte 16 Noroeste 0 -- -- 86
2020-09-05 04:00:00 19.5 9 Norte 20 Norte 0 -- -- 86
2020-09-05 03:00:00 19.7 11 Norte 18 Norte 0 -- -- 87
2020-09-05 02:00:00 19.9 10 Norte 19 Noroeste 0 -- -- 86
2020-09-05 01:00:00 19.9 8 Norte 17 Norte 0 -- -- 87
2020-09-05 00:00:00 20.1 12 Norte 19 Norte 0 -- -- 87
2020-09-04 23:00:00 20.3 10 Norte 18 Norte 0 -- -- 88
2020-09-04 22:00:00 20.2 10 Norte 16 Norte 0 -- -- 87
2020-09-04 21:00:00 20.6 9 Norte 16 Norte 0 -- -- 83
2020-09-04 20:00:00 21.4 11 Norte 18 Norte 0 -- -- 79
2020-09-04 19:00:00 22.4 10 Norte 19 Norte 0 -- -- 75
2020-09-04 18:00:00 23.3 12 Norte 19 Norte 0 -- -- 70
2020-09-04 17:00:00 23.6 13 Norte 23 Norte 0 -- -- 68
2020-09-04 16:00:00 24 14 Norte 24 Norte 0 -- -- 65
2020-09-04 15:00:00 24.4 12 Norte 23 Noroeste 0 -- -- 65
2020-09-04 14:00:00 23.9 13 Norte 22 Norte 0 -- -- 64
2020-09-04 13:00:00 23.6 12 Norte 24 Noroeste 0 -- -- 66
2020-09-04 12:00:00 23 15 Noroeste 24 Norte 0 -- -- 68
2020-09-04 11:00:00 22.4 14 Norte 23 Noroeste 0 -- -- 71
2020-09-04 10:00:00 21.3 12 Norte 23 Nordeste 0 -- -- 76
2020-09-04 09:00:00 20.2 12 Norte 17 Noroeste 0 -- -- 81
2020-09-04 08:00:00 19.6 8 Norte 14 Norte 0 -- -- 85
2020-09-04 07:00:00 19.3 7 Norte 18 Norte 0 -- -- 85
2020-09-04 06:00:00 19.4 13 Norte 19 Norte 0 -- -- 85
2020-09-04 05:00:00 19.5 11 Norte 19 Norte 0 -- -- 85
2020-09-04 04:00:00 19.1 8 Norte 22 Norte 0 -- -- 86
2020-09-04 03:00:00 19.3 12 Norte 22 Norte 0 -- -- 85
2020-09-04 02:00:00 19.3 12 Nordeste 21 Norte 0 -- -- 86
2020-09-04 01:00:00 19.4 10 Nordeste 23 Nordeste 0 -- -- 85
2020-09-04 00:00:00 19.5 10 Norte 18 Norte 0 -- -- 85
2020-09-03 23:00:00 19.8 11 Norte 20 Norte 0 -- -- 83
2020-09-03 22:00:00 20.2 12 Norte 21 Norte 0 -- -- 83
2020-09-03 21:00:00 20.3 15 Norte 21 Norte 0 -- -- 83
2020-09-03 20:00:00 20.9 15 Norte 26 Norte 0 -- -- 80
2020-09-03 19:00:00 21.9 17 Norte 28 Nordeste 0 -- -- 74
2020-09-03 18:00:00 22.7 16 Nordeste 28 Nordeste 0 -- -- 69
2020-09-03 17:00:00 23.2 19 Norte 29 Nordeste 0 -- -- 67
2020-09-03 16:00:00 23.3 18 Norte 30 Nordeste 0 -- -- 67
2020-09-03 15:00:00 23.4 17 Norte 31 Norte 0 -- -- 66
2020-09-03 14:00:00 23.9 19 Norte 31 Norte 0 -- -- 64
2020-09-03 13:00:00 23.3 15 Nordeste 35 Nordeste 0 -- -- 66
2020-09-03 12:00:00 22.6 17 Norte 28 Nordeste 0 -- -- 69
2020-09-03 11:00:00 21.9 17 Nordeste 31 Norte 0 -- -- 73
2020-09-03 10:00:00 20.8 14 Nordeste 29 Nordeste 0 -- -- 78
2020-09-03 09:00:00 19.8 17 Nordeste 29 Nordeste 0 -- -- 82
2020-09-03 08:00:00 19.5 18 Nordeste 33 Nordeste 0 -- -- 84
2020-09-03 07:00:00 19.4 20 Nordeste 33 Nordeste 0 -- -- 83
2020-09-03 06:00:00 19.7 16 Norte 30 Nordeste 0 -- -- 85
2020-09-03 05:00:00 19.7 21 Nordeste 37 Norte 0 -- -- 86
2020-09-03 04:00:00 19.8 17 Nordeste 33 Nordeste 0 -- -- 87
2020-09-03 03:00:00 20.1 16 Nordeste 35 Nordeste 0 -- -- 89
2020-09-03 02:00:00 20.1 20 Nordeste 40 Nordeste 0 -- -- 89
2020-09-03 01:00:00 19.9 21 Nordeste 34 Nordeste 0 -- -- 91
2020-09-03 00:00:00 20 13 Nordeste 42 Nordeste 0 -- -- 90
2020-09-02 23:00:00 20.1 22 Nordeste 43 Nordeste 0 -- -- 89
2020-09-02 22:00:00 20.2 18 Nordeste 37 Nordeste 0 -- -- 89
2020-09-02 21:00:00 20.4 19 Nordeste 35 Norte 0 -- -- 89
2020-09-02 20:00:00 21 21 Nordeste 34 Norte 0 -- -- 87
2020-09-02 19:00:00 22.1 21 Nordeste 34 Norte 0 -- -- 81
2020-09-02 18:00:00 23.1 25 Norte 36 Norte 0 -- -- 75
2020-09-02 17:00:00 24.1 23 Norte 34 Norte 0 -- -- 68
2020-09-02 16:00:00 24.7 23 Norte 35 Norte 0 -- -- 61
2020-09-02 15:00:00 24.9 22 Norte 34 Nordeste 0 -- -- 66
2020-09-02 14:00:00 24.6 25 Norte 36 Norte 0 -- -- 69
2020-09-02 13:00:00 25 23 Norte 32 Norte 0 -- -- 63
2020-09-02 12:00:00 24.8 15 Nordeste 32 Norte 0 -- -- 62
2020-09-02 11:00:00 23.4 16 Nordeste 26 Nordeste 0 -- -- 67
2020-09-02 10:00:00 22.1 12 Nordeste 19 Norte 0 -- -- 81
2020-09-02 09:00:00 20.3 13 Nordeste 27 Nordeste 0 -- -- 93
2020-09-02 08:00:00 19.8 15 Nordeste 25 Este 0 -- -- 92
2020-09-02 07:00:00 19.7 14 Nordeste 22 Nordeste 0 -- -- 93
2020-09-02 06:00:00 19.8 10 Norte 15 Norte 0 -- -- 94
2020-09-02 05:00:00 20 4 Norte 7 Noroeste 0 -- -- 92
2020-09-02 04:00:00 19.9 2 Noroeste 7 Oeste 0 -- -- 92
2020-09-02 03:00:00 19.3 0 Calma 5 Oeste 0 -- -- 91
2020-09-02 02:00:00 19.3 3 Sudoeste 4 Sudoeste 0 -- -- 90
2020-09-02 01:00:00 20.2 2 Sudeste 11 Sudeste 0 -- -- 89
2020-09-02 00:00:00 20.4 9 Sur 14 Sur 0 -- -- 89
2020-09-01 23:00:00 20.5 0 Calma 15 Norte 0 -- -- 89
2020-09-01 22:00:00 20.7 10 Norte 17 Norte 0 -- -- 90
2020-09-01 21:00:00 22.9 7 Norte 13 Noroeste 0 -- -- 77
2020-09-01 20:00:00 23.6 9 Nordeste 20 Norte 0 -- -- 75
2020-09-01 19:00:00 24.9 12 Norte 21 Norte 0 -- -- 72
2020-09-01 18:00:00 27 12 Noroeste 25 Norte 0 -- -- 61
2020-09-01 17:00:00 27.8 12 Norte 27 Norte 0 -- -- 56
2020-09-01 16:00:00 28.9 13 Noroeste 24 Norte 0 -- -- 55
2020-09-01 15:00:00 28.7 10 Nordeste 21 Nordeste 0 -- -- 57
2020-09-01 14:00:00 27.1 10 Norte 24 Noroeste 0 -- -- 65
2020-09-01 13:00:00 28.1 9 Nordeste 21 Este 0 -- -- 59
2020-09-01 12:00:00 26.5 11 Sudeste 23 Nordeste 0 -- -- 62
2020-09-01 11:00:00 24.1 8 Este 17 Este 0 -- -- 75
2020-09-01 10:00:00 21.3 8 Nordeste 13 Norte 0 -- -- 89
2020-09-01 09:00:00 20.5 7 Norte 11 Nordeste 0 -- -- 94
2020-09-01 08:00:00 19.3 0 Calma 5 Este 0 -- -- 95
2020-09-01 07:00:00 19 3 Oeste 4 Oeste 0 -- -- 96
2020-09-01 06:00:00 18 3 Sudoeste 4 Sudoeste 0 -- -- 94
2020-09-01 05:00:00 18.5 0 Calma 5 Sur 0 -- -- 94
2020-09-01 04:00:00 18.1 5 Sur 7 Sur 0 -- -- 92
2020-09-01 03:00:00 18.7 2 Sudoeste 12 Este 0 -- -- 91
2020-09-01 02:00:00 19.8 5 Nordeste 21 Este 0 -- -- 90
2020-09-01 01:00:00 20.2 17 Este 22 Este 0 -- -- 88
2020-09-01 00:00:00 20.6 11 Nordeste 29 Nordeste 0 -- -- 91
2020-08-31 23:00:00 20.5 14 Nordeste 31 Norte 0 -- -- 91
2020-08-31 22:00:00 20.5 17 Nordeste 28 Norte 0 -- -- 92
2020-08-31 21:00:00 20.6 18 Norte 31 Nordeste 0 -- -- 91
2020-08-31 20:00:00 20.7 18 Nordeste 33 Nordeste 0 -- -- 90
2020-08-31 19:00:00 21 23 Norte 39 Nordeste 0 -- -- 86
2020-08-31 18:00:00 21.4 25 Norte 39 Norte 0 -- -- 83
2020-08-31 17:00:00 21.9 26 Norte 38 Norte 0 -- -- 81
2020-08-31 16:00:00 22.1 27 Norte 41 Norte 0 -- -- 78
2020-08-31 15:00:00 22.1 28 Norte 44 Norte 0 -- -- 79
2020-08-31 14:00:00 21.8 29 Norte 44 Norte 0 -- -- 79
2020-08-31 13:00:00 21.7 27 Norte 46 Nordeste 0 -- -- 78
2020-08-31 12:00:00 21.7 31 Nordeste 44 Nordeste 0 -- -- 77
2020-08-31 11:00:00 20.7 28 Norte 42 Norte 0 -- -- 83
2020-08-31 10:00:00 20.2 26 Norte 43 Norte 0 -- -- 85
2020-08-31 09:00:00 19.8 23 Norte 40 Norte 0 -- -- 87
2020-08-31 08:00:00 19.6 27 Norte 40 Norte 0 -- -- 86
2020-08-31 07:00:00 19.5 22 Norte 39 Norte 0 -- -- 88
2020-08-31 06:00:00 19.4 23 Norte 34 Norte 0 -- -- 88
2020-08-31 05:00:00 19.5 22 Norte 39 Norte 0 -- -- 88
2020-08-31 04:00:00 19.6 26 Norte 38 Norte 0 -- -- 88
2020-08-31 03:00:00 19.7 23 Norte 35 Norte 0 -- -- 89
2020-08-31 02:00:00 19.8 20 Norte 38 Norte 0 -- -- 89
2020-08-31 01:00:00 19.9 22 Norte 40 Norte 0 -- -- 89
2020-08-31 00:00:00 20 23 Norte 40 Norte 0 -- -- 88
2020-08-30 23:00:00 20.1 23 Norte 39 Norte 0 -- -- 87
2020-08-30 22:00:00 20.2 26 Norte 40 Norte 0 -- -- 85
2020-08-30 21:00:00 20.3 24 Norte 41 Norte 0 -- -- 85
2020-08-30 20:00:00 20.5 27 Norte 44 Norte 0 -- -- 81
2020-08-30 19:00:00 20.9 28 Norte 43 Norte 0 -- -- 78
2020-08-30 18:00:00 21.4 32 Norte 47 Norte 0 -- -- 73
2020-08-30 17:00:00 21.9 31 Norte 46 Norte 0 -- -- 68
2020-08-30 16:00:00 22.3 32 Norte 49 Norte 0 -- -- 68
2020-08-30 15:00:00 22.4 38 Norte 53 Norte 0 -- -- 64
2020-08-30 14:00:00 22 32 Norte 50 Norte 0 -- -- 67
2020-08-30 13:00:00 21.9 33 Norte 52 Norte 0 -- -- 67
2020-08-30 12:00:00 22.5 38 Norte 54 Nordeste 0 -- -- 63
2020-08-30 11:00:00 21.6 37 Norte 54 Norte 0 -- -- 65
2020-08-30 10:00:00 20.9 33 Norte 49 Norte 0 -- -- 71
2020-08-30 09:00:00 20.1 32 Norte 54 Nordeste 0 -- -- 74
2020-08-30 08:00:00 19.2 28 Norte 47 Norte 0 -- -- 80
2020-08-30 07:00:00 19 26 Norte 45 Norte 0 -- -- 77
2020-08-30 06:00:00 18.9 21 Norte 42 Norte 0 -- -- 79
2020-08-30 05:00:00 19 24 Norte 39 Norte 0 -- -- 77
2020-08-30 04:00:00 19 29 Norte 45 Nordeste 0 -- -- 77
2020-08-30 03:00:00 18.8 26 Norte 51 Norte 0 -- -- 81
2020-08-30 02:00:00 19.2 24 Norte 45 Norte 0 -- -- 79
2020-08-30 01:00:00 19.4 30 Norte 47 Nordeste 0 -- -- 81
2020-08-30 00:00:00 19.2 33 Norte 56 Norte 0 -- -- 85
2020-08-29 23:00:00 20 31 Norte 44 Norte 0 -- -- 87
2020-08-29 22:00:00 19.9 30 Norte 41 Norte 0 -- -- 82
2020-08-29 21:00:00 19.9 29 Norte 50 Norte 0 -- -- 80
2020-08-29 20:00:00 20.4 30 Norte 47 Nordeste 0 -- -- 82
2020-08-29 19:00:00 21 35 Norte 51 Norte 0 -- -- 80
2020-08-29 18:00:00 21.6 36 Norte 55 Norte 0 -- -- 78
2020-08-29 17:00:00 22 32 Norte 50 Norte 0 -- -- 75
2020-08-29 16:00:00 21.3 33 Norte 56 Norte 0 -- -- 79
2020-08-29 15:00:00 21.1 35 Norte 55 Nordeste 0 -- -- 91
2020-08-29 14:00:00 21 36 Norte 51 Norte 0 -- -- 94
2020-08-29 13:00:00 20.8 29 Norte 46 Nordeste 0.4 -- -- 94
2020-08-29 12:00:00 21.8 24 Norte 37 Norte 0 -- -- 87
2020-08-29 11:00:00 21.4 22 Norte 44 Norte 0 -- -- 88
2020-08-29 10:00:00 21.1 25 Norte 43 Norte 0 -- -- 86
2020-08-29 09:00:00 20.2 26 Norte 40 Nordeste 0 -- -- 90
2020-08-29 08:00:00 20.4 24 Norte 44 Norte 0 -- -- 83
2020-08-29 07:00:00 20.4 24 Norte 44 Nordeste 0 -- -- 82
2020-08-29 06:00:00 20.4 26 Norte 42 Norte 0 -- -- 83
2020-08-29 05:00:00 20.4 26 Nordeste 44 Norte 0 -- -- 86
2020-08-29 04:00:00 20.3 25 Norte 51 Norte 0 -- -- 83
2020-08-29 03:00:00 20.3 31 Norte 60 Norte 0 -- -- 84
2020-08-29 02:00:00 20.4 27 Norte 48 Norte 0 -- -- 85
2020-08-29 01:00:00 20.4 30 Norte 46 Nordeste 0 -- -- 85
2020-08-29 00:00:00 20.4 28 Nordeste 48 Nordeste 0 -- -- 87
2020-08-28 23:00:00 20.6 31 Norte 50 Norte 0 -- -- 87
2020-08-28 22:00:00 20.6 31 Norte 48 Nordeste 0 -- -- 87
2020-08-28 21:00:00 21 30 Norte 46 Norte 0 -- -- 88
2020-08-28 20:00:00 21.5 28 Norte 46 Norte 0 -- -- 87
2020-08-28 19:00:00 22.4 28 Norte 53 Norte 0 -- -- 83
2020-08-28 18:00:00 23.4 36 Norte 53 Nordeste 0 -- -- 76
2020-08-28 17:00:00 24.2 32 Norte -- -- -- -- -- 74
2020-08-28 16:00:00 24.8 39 Nordeste 56 Norte 0 -- -- 73
2020-08-28 15:00:00 25.4 32 Nordeste 53 Norte 0 -- -- 69
2020-08-28 14:00:00 25.2 38 Nordeste 58 Nordeste 0 -- -- 70
2020-08-28 13:00:00 24.9 35 Norte 60 Norte 0 -- -- 69
2020-08-28 12:00:00 25.6 29 Nordeste 53 Nordeste 0 -- -- 59
2020-08-28 11:00:00 24.1 36 Nordeste 54 Norte 0 -- -- 68
2020-08-28 10:00:00 23 36 Norte 56 Nordeste 0 -- -- 78
2020-08-28 09:00:00 21.7 32 Nordeste 50 Nordeste 0 -- -- 87
2020-08-28 08:00:00 22.1 35 Nordeste 56 Norte 0 -- -- 79
2020-08-28 07:00:00 21.4 30 Nordeste 40 Norte 0 -- -- 90
2020-08-28 06:00:00 21.5 27 Norte 40 Norte 0 -- -- 89
2020-08-28 05:00:00 22.6 27 Nordeste 41 Norte 0 -- -- 77
2020-08-28 04:00:00 23.2 27 Norte 40 Norte 0 -- -- 73
2020-08-28 03:00:00 22.8 25 Nordeste 44 Norte 0 -- -- 72
2020-08-28 02:00:00 24 27 Nordeste 42 Nordeste 0 -- -- 67
2020-08-28 01:00:00 22.7 27 Nordeste 48 Nordeste 0 -- -- 79
2020-08-28 00:00:00 24 32 Nordeste 44 Nordeste 0 -- -- 67